Terminal Aerodrome Forecast
Issued by NWS

Home | Current Version | Previous Version | Text Only | Print | Product List | Glossary On
Versions: 1 2 3 4 5 6 7 8 9 10 11 12 13 14 15 16 17 18 19 20 21 22 23 24
000
FTUS41 KGYX 301741
TAFAUG
TAF
KAUG 301741Z 3018/3118 02006KT 1/2SM SN FZFG OVC012
     FM302300 35014G26KT 1SM -SN BLSN OVC007
     FM310700 34018G28KT 4SM -SN BLSN OVC020
     FM311300 33020G30KT P6SM -SHSN BKN035=

USA.gov is the U.S. government's official web portal to all federal, state and local government web resources and services.